sensor_id;sensor_type;location;lat;lon;timestamp;P1;P2;P0
74419;PMS5003;62855;50.718;-2.460;2024-02-26T00:00:06;4.54;1.96;
74419;PMS5003;62855;50.718;-2.460;2024-02-26T00:03:06;4.54;1.96;
74419;PMS5003;62855;50.718;-2.460;2024-02-26T00:06:06;2.72;1.96;
74419;PMS5003;62855;50.718;-2.460;2024-02-26T00:09:05;2.72;1.96;
74419;PMS5003;62855;50.718;-2.460;2024-02-26T00:12:06;0.91;0.98;
74419;PMS5003;62855;50.718;-2.460;2024-02-26T00:15:08;1.82;1.96;
74419;PMS5003;62855;50.718;-2.460;2024-02-26T00:18:06;0.91;0.98;
74419;PMS5003;62855;50.718;-2.460;2024-02-26T00:21:06;0.91;0.98;
74419;PMS5003;62855;50.718;-2.460;2024-02-26T00:24:06;1.82;1.96;
74419;PMS5003;62855;50.718;-2.460;2024-02-26T00:27:06;0.91;0.98;
74419;PMS5003;62855;50.718;-2.460;2024-02-26T00:30:05;0.91;0.98;
74419;PMS5003;62855;50.718;-2.460;2024-02-26T00:33:05;0.91;0.98;
74419;PMS5003;62855;50.718;-2.460;2024-02-26T00:36:05;0.91;0.98;
74419;PMS5003;62855;50.718;-2.460;2024-02-26T00:39:07;3.63;2.93;
74419;PMS5003;62855;50.718;-2.460;2024-02-26T00:42:06;4.54;1.96;
74419;PMS5003;62855;50.718;-2.460;2024-02-26T00:45:06;6.35;2.93;
74419;PMS5003;62855;50.718;-2.460;2024-02-26T00:48:06;7.26;3.91;
74419;PMS5003;62855;50.718;-2.460;2024-02-26T00:51:07;5.45;1.96;
74419;PMS5003;62855;50.718;-2.460;2024-02-26T00:54:06;4.54;1.96;
74419;PMS5003;62855;50.718;-2.460;2024-02-26T00:57:06;4.54;1.96;
74419;PMS5003;62855;50.718;-2.460;2024-02-26T01:00:06;4.54;1.96;
74419;PMS5003;62855;50.718;-2.460;2024-02-26T01:03:06;3.63;1.96;
74419;PMS5003;62855;50.718;-2.460;2024-02-26T01:06:05;2.72;0.98;
74419;PMS5003;62855;50.718;-2.460;2024-02-26T01:09:05;3.63;1.96;
74419;PMS5003;62855;50.718;-2.460;2024-02-26T01:12:05;3.63;1.96;
74419;PMS5003;62855;50.718;-2.460;2024-02-26T01:15:06;2.72;1.96;
74419;PMS5003;62855;50.718;-2.460;2024-02-26T01:18:06;2.72;1.96;
74419;PMS5003;62855;50.718;-2.460;2024-02-26T01:21:05;1.82;0.98;
74419;PMS5003;62855;50.718;-2.460;2024-02-26T01:24:05;1.82;0.98;
74419;PMS5003;62855;50.718;-2.460;2024-02-26T01:27:05;1.82;1.96;
74419;PMS5003;62855;50.718;-2.460;2024-02-26T01:30:06;1.82;0.98;
74419;PMS5003;62855;50.718;-2.460;2024-02-26T01:33:05;1.82;0.98;
74419;PMS5003;62855;50.718;-2.460;2024-02-26T01:36:06;0;0;
74419;PMS5003;62855;50.718;-2.460;2024-02-26T01:39:06;0.91;0.98;
74419;PMS5003;62855;50.718;-2.460;2024-02-26T01:42:06;0.91;0.98;
74419;PMS5003;62855;50.718;-2.460;2024-02-26T01:45:05;0.91;0.98;
74419;PMS5003;62855;50.718;-2.460;2024-02-26T01:48:06;1.82;0.98;
74419;PMS5003;62855;50.718;-2.460;2024-02-26T01:51:05;2.72;1.96;
74419;PMS5003;62855;50.718;-2.460;2024-02-26T01:54:05;2.72;1.96;
74419;PMS5003;62855;50.718;-2.460;2024-02-26T01:57:05;2.72;1.96;
74419;PMS5003;62855;50.718;-2.460;2024-02-26T02:00:06;2.72;1.96;
74419;PMS5003;62855;50.718;-2.460;2024-02-26T02:03:05;2.72;1.96;
74419;PMS5003;62855;50.718;-2.460;2024-02-26T02:06:06;2.72;1.96;
74419;PMS5003;62855;50.718;-2.460;2024-02-26T02:09:06;2.72;1.96;
74419;PMS5003;62855;50.718;-2.460;2024-02-26T02:12:05;2.72;0.98;
74419;PMS5003;62855;50.718;-2.460;2024-02-26T02:15:07;2.72;0.98;
74419;PMS5003;62855;50.718;-2.460;2024-02-26T02:18:05;1.82;0.98;
74419;PMS5003;62855;50.718;-2.460;2024-02-26T02:21:06;0.91;0.98;
74419;PMS5003;62855;50.718;-2.460;2024-02-26T02:24:06;0.91;0.98;
74419;PMS5003;62855;50.718;-2.460;2024-02-26T02:27:07;0.91;0.98;
74419;PMS5003;62855;50.718;-2.460;2024-02-26T02:30:06;0;0;
74419;PMS5003;62855;50.718;-2.460;2024-02-26T02:33:06;1.82;0.98;
74419;PMS5003;62855;50.718;-2.460;2024-02-26T02:36:05;2.72;1.96;
74419;PMS5003;62855;50.718;-2.460;2024-02-26T02:39:05;2.72;1.96;
74419;PMS5003;62855;50.718;-2.460;2024-02-26T02:42:05;2.72;1.96;
74419;PMS5003;62855;50.718;-2.460;2024-02-26T02:45:15;2.72;1.96;
74419;PMS5003;62855;50.718;-2.460;2024-02-26T02:48:05;2.72;0.98;
74419;PMS5003;62855;50.718;-2.460;2024-02-26T02:51:05;1.82;0.98;
74419;PMS5003;62855;50.718;-2.460;2024-02-26T02:54:05;1.82;0.98;
74419;PMS5003;62855;50.718;-2.460;2024-02-26T02:57:05;1.82;0.98;
74419;PMS5003;62855;50.718;-2.460;2024-02-26T03:00:06;1.82;0.98;
74419;PMS5003;62855;50.718;-2.460;2024-02-26T03:03:05;0.91;0;
74419;PMS5003;62855;50.718;-2.460;2024-02-26T03:06:05;0.91;0;
74419;PMS5003;62855;50.718;-2.460;2024-02-26T03:09:05;0.91;0;
74419;PMS5003;62855;50.718;-2.460;2024-02-26T03:12:05;0;0;
74419;PMS5003;62855;50.718;-2.460;2024-02-26T03:15:05;0;0;
74419;PMS5003;62855;50.718;-2.460;2024-02-26T03:18:06;0;0;
74419;PMS5003;62855;50.718;-2.460;2024-02-26T03:21:06;0.91;0;
74419;PMS5003;62855;50.718;-2.460;2024-02-26T03:24:05;0.91;0;
74419;PMS5003;62855;50.718;-2.460;2024-02-26T03:27:06;0.91;0;
74419;PMS5003;62855;50.718;-2.460;2024-02-26T03:30:06;0.91;0;
74419;PMS5003;62855;50.718;-2.460;2024-02-26T03:33:06;0.91;0;
74419;PMS5003;62855;50.718;-2.460;2024-02-26T03:36:05;1.82;0.98;
74419;PMS5003;62855;50.718;-2.460;2024-02-26T03:39:07;1.82;0;
74419;PMS5003;62855;50.718;-2.460;2024-02-26T03:42:05;2.72;0.98;
74419;PMS5003;62855;50.718;-2.460;2024-02-26T03:45:06;4.54;1.96;
74419;PMS5003;62855;50.718;-2.460;2024-02-26T03:48:06;4.54;1.96;
74419;PMS5003;62855;50.718;-2.460;2024-02-26T03:51:05;2.72;0.98;
74419;PMS5003;62855;50.718;-2.460;2024-02-26T03:54:05;3.63;1.96;
74419;PMS5003;62855;50.718;-2.460;2024-02-26T03:57:05;2.72;0.98;
74419;PMS5003;62855;50.718;-2.460;2024-02-26T04:00:05;2.72;0.98;
74419;PMS5003;62855;50.718;-2.460;2024-02-26T04:03:07;2.72;0.98;
74419;PMS5003;62855;50.718;-2.460;2024-02-26T04:06:08;1.82;0;
74419;PMS5003;62855;50.718;-2.460;2024-02-26T04:09:06;1.82;0.98;
74419;PMS5003;62855;50.718;-2.460;2024-02-26T04:12:06;0.91;0;
74419;PMS5003;62855;50.718;-2.460;2024-02-26T04:15:06;0.91;0;
74419;PMS5003;62855;50.718;-2.460;2024-02-26T04:18:05;0.91;0.98;
74419;PMS5003;62855;50.718;-2.460;2024-02-26T04:21:05;1.82;0.98;
74419;PMS5003;62855;50.718;-2.460;2024-02-26T04:24:05;1.82;0.98;
74419;PMS5003;62855;50.718;-2.460;2024-02-26T04:27:06;1.82;0.98;
74419;PMS5003;62855;50.718;-2.460;2024-02-26T04:30:06;1.82;0.98;
74419;PMS5003;62855;50.718;-2.460;2024-02-26T04:33:06;2.72;0.98;
74419;PMS5003;62855;50.718;-2.460;2024-02-26T04:36:06;2.72;1.96;
74419;PMS5003;62855;50.718;-2.460;2024-02-26T04:39:05;1.82;1.96;
74419;PMS5003;62855;50.718;-2.460;2024-02-26T04:42:05;2.72;1.96;
74419;PMS5003;62855;50.718;-2.460;2024-02-26T04:45:06;2.72;1.96;
74419;PMS5003;62855;50.718;-2.460;2024-02-26T04:48:05;2.72;1.96;
74419;PMS5003;62855;50.718;-2.460;2024-02-26T04:51:07;1.82;1.96;
74419;PMS5003;62855;50.718;-2.460;2024-02-26T04:54:05;1.82;1.96;
74419;PMS5003;62855;50.718;-2.460;2024-02-26T04:57:05;2.72;1.96;
74419;PMS5003;62855;50.718;-2.460;2024-02-26T05:00:05;3.63;1.96;
74419;PMS5003;62855;50.718;-2.460;2024-02-26T05:03:05;2.72;1.96;
74419;PMS5003;62855;50.718;-2.460;2024-02-26T05:06:05;2.72;0.98;
74419;PMS5003;62855;50.718;-2.460;2024-02-26T05:09:06;2.72;1.96;
74419;PMS5003;62855;50.718;-2.460;2024-02-26T05:12:06;2.72;0.98;
74419;PMS5003;62855;50.718;-2.460;2024-02-26T05:15:06;2.72;0.98;
74419;PMS5003;62855;50.718;-2.460;2024-02-26T05:18:05;2.72;0.98;
74419;PMS5003;62855;50.718;-2.460;2024-02-26T05:21:07;2.72;1.96;
74419;PMS5003;62855;50.718;-2.460;2024-02-26T05:24:06;2.72;0.98;
74419;PMS5003;62855;50.718;-2.460;2024-02-26T05:27:06;1.82;1.96;
74419;PMS5003;62855;50.718;-2.460;2024-02-26T05:30:06;0.91;0.98;
74419;PMS5003;62855;50.718;-2.460;2024-02-26T05:33:05;1.82;1.96;
74419;PMS5003;62855;50.718;-2.460;2024-02-26T05:36:05;1.82;1.96;
74419;PMS5003;62855;50.718;-2.460;2024-02-26T05:39:05;1.82;1.96;
74419;PMS5003;62855;50.718;-2.460;2024-02-26T05:42:05;1.82;1.96;
74419;PMS5003;62855;50.718;-2.460;2024-02-26T05:45:07;1.82;1.96;
74419;PMS5003;62855;50.718;-2.460;2024-02-26T05:48:05;1.82;1.96;
74419;PMS5003;62855;50.718;-2.460;2024-02-26T05:51:05;1.82;1.96;
74419;PMS5003;62855;50.718;-2.460;2024-02-26T05:54:05;1.82;1.96;
74419;PMS5003;62855;50.718;-2.460;2024-02-26T05:57:05;0.91;0.98;
74419;PMS5003;62855;50.718;-2.460;2024-02-26T06:00:05;1.82;0.98;
74419;PMS5003;62855;50.718;-2.460;2024-02-26T06:03:05;0.91;0.98;
74419;PMS5003;62855;50.718;-2.460;2024-02-26T06:06:06;0.91;0.98;
74419;PMS5003;62855;50.718;-2.460;2024-02-26T06:09:06;1.82;1.96;
74419;PMS5003;62855;50.718;-2.460;2024-02-26T06:12:06;1.82;1.96;
74419;PMS5003;62855;50.718;-2.460;2024-02-26T06:15:05;1.82;1.96;
74419;PMS5003;62855;50.718;-2.460;2024-02-26T06:18:06;1.82;1.96;
74419;PMS5003;62855;50.718;-2.460;2024-02-26T06:21:09;1.82;1.96;
74419;PMS5003;62855;50.718;-2.460;2024-02-26T06:24:06;1.82;1.96;
74419;PMS5003;62855;50.718;-2.460;2024-02-26T06:27:06;1.82;1.96;
74419;PMS5003;62855;50.718;-2.460;2024-02-26T06:30:06;1.82;1.96;
74419;PMS5003;62855;50.718;-2.460;2024-02-26T06:33:07;1.82;1.96;
74419;PMS5003;62855;50.718;-2.460;2024-02-26T06:36:05;0.91;0.98;
74419;PMS5003;62855;50.718;-2.460;2024-02-26T06:39:05;0.91;0.98;
74419;PMS5003;62855;50.718;-2.460;2024-02-26T06:42:05;0.91;0.98;
74419;PMS5003;62855;50.718;-2.460;2024-02-26T06:45:07;0.91;0.98;
74419;PMS5003;62855;50.718;-2.460;2024-02-26T06:48:05;1.82;0.98;
74419;PMS5003;62855;50.718;-2.460;2024-02-26T06:51:05;1.82;0.98;
74419;PMS5003;62855;50.718;-2.460;2024-02-26T06:54:06;2.72;0.98;
74419;PMS5003;62855;50.718;-2.460;2024-02-26T06:57:06;2.72;0.98;
74419;PMS5003;62855;50.718;-2.460;2024-02-26T07:00:06;2.72;0.98;
74419;PMS5003;62855;50.718;-2.460;2024-02-26T07:03:05;3.63;0.98;
74419;PMS5003;62855;50.718;-2.460;2024-02-26T07:06:05;3.63;0.98;
74419;PMS5003;62855;50.718;-2.460;2024-02-26T07:09:05;2.72;0.98;
74419;PMS5003;62855;50.718;-2.460;2024-02-26T07:12:05;4.54;2.93;
74419;PMS5003;62855;50.718;-2.460;2024-02-26T07:15:06;4.54;2.93;
74419;PMS5003;62855;50.718;-2.460;2024-02-26T07:18:05;4.54;2.93;
74419;PMS5003;62855;50.718;-2.460;2024-02-26T07:21:05;3.63;2.93;
74419;PMS5003;62855;50.718;-2.460;2024-02-26T07:24:05;2.72;2.93;
74419;PMS5003;62855;50.718;-2.460;2024-02-26T07:27:05;2.72;2.93;
74419;PMS5003;62855;50.718;-2.460;2024-02-26T07:30:06;3.63;2.93;
74419;PMS5003;62855;50.718;-2.460;2024-02-26T07:33:05;3.63;2.93;
74419;PMS5003;62855;50.718;-2.460;2024-02-26T07:36:06;3.63;1.96;
74419;PMS5003;62855;50.718;-2.460;2024-02-26T07:39:06;4.54;2.93;
74419;PMS5003;62855;50.718;-2.460;2024-02-26T07:42:05;2.72;0.98;
74419;PMS5003;62855;50.718;-2.460;2024-02-26T07:45:06;2.72;0.98;
74419;PMS5003;62855;50.718;-2.460;2024-02-26T07:48:06;3.63;0.98;
74419;PMS5003;62855;50.718;-2.460;2024-02-26T07:51:06;1.82;0;
74419;PMS5003;62855;50.718;-2.460;2024-02-26T07:54:05;1.82;0;
74419;PMS5003;62855;50.718;-2.460;2024-02-26T07:57:05;2.72;0.98;
74419;PMS5003;62855;50.718;-2.460;2024-02-26T08:00:05;2.72;0.98;
74419;PMS5003;62855;50.718;-2.460;2024-02-26T08:03:05;2.72;0.98;
74419;PMS5003;62855;50.718;-2.460;2024-02-26T08:06:07;2.72;0.98;
74419;PMS5003;62855;50.718;-2.460;2024-02-26T08:09:05;2.72;0.98;
74419;PMS5003;62855;50.718;-2.460;2024-02-26T08:12:06;2.72;0.98;
74419;PMS5003;62855;50.718;-2.460;2024-02-26T08:15:06;2.72;0.98;
74419;PMS5003;62855;50.718;-2.460;2024-02-26T08:18:06;1.82;1.96;
74419;PMS5003;62855;50.718;-2.460;2024-02-26T08:21:05;1.82;1.96;
74419;PMS5003;62855;50.718;-2.460;2024-02-26T08:24:05;2.72;1.96;
74419;PMS5003;62855;50.718;-2.460;2024-02-26T08:27:05;2.72;1.96;
74419;PMS5003;62855;50.718;-2.460;2024-02-26T08:30:06;1.82;0.98;
74419;PMS5003;62855;50.718;-2.460;2024-02-26T08:33:05;1.82;0.98;
74419;PMS5003;62855;50.718;-2.460;2024-02-26T08:36:05;1.82;1.96;
74419;PMS5003;62855;50.718;-2.460;2024-02-26T08:39:06;1.82;0.98;
74419;PMS5003;62855;50.718;-2.460;2024-02-26T08:42:05;1.82;0.98;
74419;PMS5003;62855;50.718;-2.460;2024-02-26T08:45:06;1.82;0.98;
74419;PMS5003;62855;50.718;-2.460;2024-02-26T08:48:06;0.91;0.98;
74419;PMS5003;62855;50.718;-2.460;2024-02-26T08:51:06;1.82;0.98;
74419;PMS5003;62855;50.718;-2.460;2024-02-26T08:54:05;0.91;0.98;
74419;PMS5003;62855;50.718;-2.460;2024-02-26T08:57:06;1.82;0.98;
74419;PMS5003;62855;50.718;-2.460;2024-02-26T09:00:06;1.82;0.98;
74419;PMS5003;62855;50.718;-2.460;2024-02-26T09:03:05;2.72;1.96;
74419;PMS5003;62855;50.718;-2.460;2024-02-26T09:06:06;3.63;2.93;
74419;PMS5003;62855;50.718;-2.460;2024-02-26T09:09:05;3.63;1.96;
74419;PMS5003;62855;50.718;-2.460;2024-02-26T09:12:05;3.63;2.93;
74419;PMS5003;62855;50.718;-2.460;2024-02-26T09:15:06;3.63;2.93;
74419;PMS5003;62855;50.718;-2.460;2024-02-26T09:18:06;4.54;2.93;
74419;PMS5003;62855;50.718;-2.460;2024-02-26T09:21:06;3.63;2.93;
74419;PMS5003;62855;50.718;-2.460;2024-02-26T09:24:05;3.63;2.93;
74419;PMS5003;62855;50.718;-2.460;2024-02-26T09:27:06;3.63;2.93;
74419;PMS5003;62855;50.718;-2.460;2024-02-26T09:30:06;2.72;2.93;
74419;PMS5003;62855;50.718;-2.460;2024-02-26T09:33:06;0.91;0.98;
74419;PMS5003;62855;50.718;-2.460;2024-02-26T09:36:05;1.82;1.96;
74419;PMS5003;62855;50.718;-2.460;2024-02-26T09:39:05;1.82;1.96;
74419;PMS5003;62855;50.718;-2.460;2024-02-26T09:42:05;1.82;1.96;
74419;PMS5003;62855;50.718;-2.460;2024-02-26T09:45:05;1.82;1.96;
74419;PMS5003;62855;50.718;-2.460;2024-02-26T09:48:05;1.82;1.96;
74419;PMS5003;62855;50.718;-2.460;2024-02-26T09:51:06;1.82;1.96;
74419;PMS5003;62855;50.718;-2.460;2024-02-26T09:54:06;2.72;1.96;
74419;PMS5003;62855;50.718;-2.460;2024-02-26T09:57:06;1.82;0.98;
74419;PMS5003;62855;50.718;-2.460;2024-02-26T10:00:06;1.82;0.98;
74419;PMS5003;62855;50.718;-2.460;2024-02-26T10:03:05;1.82;0.98;
74419;PMS5003;62855;50.718;-2.460;2024-02-26T10:06:05;1.82;0.98;
74419;PMS5003;62855;50.718;-2.460;2024-02-26T10:09:05;1.82;1.96;
74419;PMS5003;62855;50.718;-2.460;2024-02-26T10:12:06;2.72;1.96;
74419;PMS5003;62855;50.718;-2.460;2024-02-26T10:15:11;2.72;1.96;
74419;PMS5003;62855;50.718;-2.460;2024-02-26T10:18:06;1.82;1.96;
74419;PMS5003;62855;50.718;-2.460;2024-02-26T10:21:05;2.72;1.96;
74419;PMS5003;62855;50.718;-2.460;2024-02-26T10:24:12;1.82;1.96;
74419;PMS5003;62855;50.718;-2.460;2024-02-26T10:27:06;1.82;1.96;
74419;PMS5003;62855;50.718;-2.460;2024-02-26T10:30:12;1.82;1.96;
74419;PMS5003;62855;50.718;-2.460;2024-02-26T10:33:06;1.82;1.96;
74419;PMS5003;62855;50.718;-2.460;2024-02-26T10:36:07;2.72;1.96;
74419;PMS5003;62855;50.718;-2.460;2024-02-26T10:39:05;2.72;1.96;
74419;PMS5003;62855;50.718;-2.460;2024-02-26T10:42:06;2.72;1.96;
74419;PMS5003;62855;50.718;-2.460;2024-02-26T10:45:05;2.72;1.96;
74419;PMS5003;62855;50.718;-2.460;2024-02-26T10:48:06;1.82;1.96;
74419;PMS5003;62855;50.718;-2.460;2024-02-26T10:51:05;1.82;1.96;
74419;PMS5003;62855;50.718;-2.460;2024-02-26T10:54:06;2.72;1.96;
74419;PMS5003;62855;50.718;-2.460;2024-02-26T10:57:05;2.72;1.96;
74419;PMS5003;62855;50.718;-2.460;2024-02-26T11:00:06;2.72;1.96;
74419;PMS5003;62855;50.718;-2.460;2024-02-26T11:03:06;2.72;1.96;
74419;PMS5003;62855;50.718;-2.460;2024-02-26T11:06:06;1.82;1.96;
74419;PMS5003;62855;50.718;-2.460;2024-02-26T11:09:06;1.82;0.98;
74419;PMS5003;62855;50.718;-2.460;2024-02-26T11:12:05;1.82;0.98;
74419;PMS5003;62855;50.718;-2.460;2024-02-26T11:15:05;0.91;0.98;
74419;PMS5003;62855;50.718;-2.460;2024-02-26T11:18:06;0.91;0.98;
74419;PMS5003;62855;50.718;-2.460;2024-02-26T11:21:05;0.91;0.98;
74419;PMS5003;62855;50.718;-2.460;2024-02-26T11:24:05;1.82;0.98;
74419;PMS5003;62855;50.718;-2.460;2024-02-26T11:27:05;1.82;0.98;
74419;PMS5003;62855;50.718;-2.460;2024-02-26T11:30:08;1.82;0.98;
74419;PMS5003;62855;50.718;-2.460;2024-02-26T11:33:06;1.82;0.98;
74419;PMS5003;62855;50.718;-2.460;2024-02-26T11:36:07;1.82;0.98;
74419;PMS5003;62855;50.718;-2.460;2024-02-26T11:39:07;1.82;0.98;
74419;PMS5003;62855;50.718;-2.460;2024-02-26T11:42:05;2.72;0.98;
74419;PMS5003;62855;50.718;-2.460;2024-02-26T11:45:06;2.72;0.98;
74419;PMS5003;62855;50.718;-2.460;2024-02-26T11:48:08;2.72;0.98;
74419;PMS5003;62855;50.718;-2.460;2024-02-26T11:51:05;2.72;0.98;
74419;PMS5003;62855;50.718;-2.460;2024-02-26T11:54:05;2.72;1.96;
74419;PMS5003;62855;50.718;-2.460;2024-02-26T12:00:11;0.91;0.98;
74419;PMS5003;62855;50.718;-2.460;2024-02-26T12:03:06;1.82;1.96;
74419;PMS5003;62855;50.718;-2.460;2024-02-26T12:06:05;4.54;2.93;
74419;PMS5003;62855;50.718;-2.460;2024-02-26T12:09:05;4.54;2.93;
74419;PMS5003;62855;50.718;-2.460;2024-02-26T12:12:06;4.54;1.96;
74419;PMS5003;62855;50.718;-2.460;2024-02-26T12:15:06;4.54;1.96;
74419;PMS5003;62855;50.718;-2.460;2024-02-26T12:18:06;4.54;2.93;
74419;PMS5003;62855;50.718;-2.460;2024-02-26T12:21:06;5.45;2.93;
74419;PMS5003;62855;50.718;-2.460;2024-02-26T12:24:07;4.54;2.93;
74419;PMS5003;62855;50.718;-2.460;2024-02-26T12:27:05;4.54;2.93;
74419;PMS5003;62855;50.718;-2.460;2024-02-26T12:30:06;4.54;2.93;
74419;PMS5003;62855;50.718;-2.460;2024-02-26T12:33:05;4.54;3.91;
74419;PMS5003;62855;50.718;-2.460;2024-02-26T12:36:06;2.72;2.93;
74419;PMS5003;62855;50.718;-2.460;2024-02-26T12:39:06;1.82;1.96;
74419;PMS5003;62855;50.718;-2.460;2024-02-26T12:42:05;2.72;2.93;
74419;PMS5003;62855;50.718;-2.460;2024-02-26T12:45:06;2.72;2.93;
74419;PMS5003;62855;50.718;-2.460;2024-02-26T12:48:05;1.82;1.96;
74419;PMS5003;62855;50.718;-2.460;2024-02-26T12:51:07;1.82;1.96;
74419;PMS5003;62855;50.718;-2.460;2024-02-26T12:54:05;2.72;2.93;
74419;PMS5003;62855;50.718;-2.460;2024-02-26T12:57:06;2.72;2.93;
74419;PMS5003;62855;50.718;-2.460;2024-02-26T13:00:06;2.72;2.93;
74419;PMS5003;62855;50.718;-2.460;2024-02-26T13:03:11;1.82;1.96;
74419;PMS5003;62855;50.718;-2.460;2024-02-26T13:06:05;1.82;1.96;
74419;PMS5003;62855;50.718;-2.460;2024-02-26T13:09:06;1.82;1.96;
74419;PMS5003;62855;50.718;-2.460;2024-02-26T13:12:06;1.82;1.96;
74419;PMS5003;62855;50.718;-2.460;2024-02-26T13:15:06;0.91;0.98;
74419;PMS5003;62855;50.718;-2.460;2024-02-26T13:18:08;1.82;1.96;
74419;PMS5003;62855;50.718;-2.460;2024-02-26T13:21:09;3.63;1.96;
74419;PMS5003;62855;50.718;-2.460;2024-02-26T13:24:06;3.63;0.98;
74419;PMS5003;62855;50.718;-2.460;2024-02-26T13:27:07;3.63;0.98;
74419;PMS5003;62855;50.718;-2.460;2024-02-26T13:30:07;3.63;0.98;
74419;PMS5003;62855;50.718;-2.460;2024-02-26T13:33:09;3.63;0.98;
74419;PMS5003;62855;50.718;-2.460;2024-02-26T13:36:05;3.63;0.98;
74419;PMS5003;62855;50.718;-2.460;2024-02-26T13:39:07;5.45;2.93;
74419;PMS5003;62855;50.718;-2.460;2024-02-26T13:42:06;6.35;2.93;
74419;PMS5003;62855;50.718;-2.460;2024-02-26T13:45:06;6.35;2.93;
74419;PMS5003;62855;50.718;-2.460;2024-02-26T13:48:05;6.35;3.91;
74419;PMS5003;62855;50.718;-2.460;2024-02-26T13:51:05;4.54;3.91;
74419;PMS5003;62855;50.718;-2.460;2024-02-26T13:54:06;4.54;2.93;
74419;PMS5003;62855;50.718;-2.460;2024-02-26T13:57:05;4.54;2.93;
74419;PMS5003;62855;50.718;-2.460;2024-02-26T14:00:06;4.54;2.93;
74419;PMS5003;62855;50.718;-2.460;2024-02-26T14:03:05;4.54;2.93;
74419;PMS5003;62855;50.718;-2.460;2024-02-26T14:06:05;4.54;2.93;
74419;PMS5003;62855;50.718;-2.460;2024-02-26T14:09:06;2.72;1.96;
74419;PMS5003;62855;50.718;-2.460;2024-02-26T14:12:05;1.82;0.98;
74419;PMS5003;62855;50.718;-2.460;2024-02-26T14:15:06;2.72;0.98;
74419;PMS5003;62855;50.718;-2.460;2024-02-26T14:18:06;1.82;0.98;
74419;PMS5003;62855;50.718;-2.460;2024-02-26T14:21:05;1.82;0.98;
74419;PMS5003;62855;50.718;-2.460;2024-02-26T14:24:06;0.91;0;
74419;PMS5003;62855;50.718;-2.460;2024-02-26T14:27:06;1.82;1.96;
74419;PMS5003;62855;50.718;-2.460;2024-02-26T14:30:06;0.91;0.98;
74419;PMS5003;62855;50.718;-2.460;2024-02-26T14:33:06;0.91;0.98;
74419;PMS5003;62855;50.718;-2.460;2024-02-26T14:36:06;1.82;1.96;
74419;PMS5003;62855;50.718;-2.460;2024-02-26T14:39:05;1.82;0.98;
74419;PMS5003;62855;50.718;-2.460;2024-02-26T14:42:05;1.82;0.98;
74419;PMS5003;62855;50.718;-2.460;2024-02-26T14:45:06;2.72;1.96;
74419;PMS5003;62855;50.718;-2.460;2024-02-26T14:48:06;1.82;0.98;
74419;PMS5003;62855;50.718;-2.460;2024-02-26T14:51:05;1.82;0.98;
74419;PMS5003;62855;50.718;-2.460;2024-02-26T14:54:06;1.82;0.98;
74419;PMS5003;62855;50.718;-2.460;2024-02-26T14:57:06;0.91;0.98;
74419;PMS5003;62855;50.718;-2.460;2024-02-26T15:00:06;1.82;0.98;
74419;PMS5003;62855;50.718;-2.460;2024-02-26T15:03:06;1.82;0.98;
74419;PMS5003;62855;50.718;-2.460;2024-02-26T15:06:05;0.91;0.98;
74419;PMS5003;62855;50.718;-2.460;2024-02-26T15:09:05;1.82;1.96;
74419;PMS5003;62855;50.718;-2.460;2024-02-26T15:12:06;1.82;1.96;
74419;PMS5003;62855;50.718;-2.460;2024-02-26T15:15:06;1.82;1.96;
74419;PMS5003;62855;50.718;-2.460;2024-02-26T15:18:06;1.82;1.96;
74419;PMS5003;62855;50.718;-2.460;2024-02-26T15:21:05;1.82;1.96;
74419;PMS5003;62855;50.718;-2.460;2024-02-26T15:24:06;1.82;1.96;
74419;PMS5003;62855;50.718;-2.460;2024-02-26T15:27:05;2.72;2.93;
74419;PMS5003;62855;50.718;-2.460;2024-02-26T15:30:06;3.63;3.91;
74419;PMS5003;62855;50.718;-2.460;2024-02-26T15:33:05;3.63;3.91;
74419;PMS5003;62855;50.718;-2.460;2024-02-26T15:36:07;3.63;3.91;
74419;PMS5003;62855;50.718;-2.460;2024-02-26T15:39:06;3.63;2.93;
74419;PMS5003;62855;50.718;-2.460;2024-02-26T15:42:07;3.63;2.93;
74419;PMS5003;62855;50.718;-2.460;2024-02-26T15:45:06;3.63;2.93;
74419;PMS5003;62855;50.718;-2.460;2024-02-26T15:48:06;4.54;2.93;
74419;PMS5003;62855;50.718;-2.460;2024-02-26T15:51:05;5.45;2.93;
74419;PMS5003;62855;50.718;-2.460;2024-02-26T15:54:07;4.54;1.96;
74419;PMS5003;62855;50.718;-2.460;2024-02-26T15:57:06;3.63;1.96;
74419;PMS5003;62855;50.718;-2.460;2024-02-26T16:00:06;2.72;0.98;
74419;PMS5003;62855;50.718;-2.460;2024-02-26T16:03:06;3.63;0.98;
74419;PMS5003;62855;50.718;-2.460;2024-02-26T16:06:06;2.72;0.98;
74419;PMS5003;62855;50.718;-2.460;2024-02-26T16:09:06;2.72;1.96;
74419;PMS5003;62855;50.718;-2.460;2024-02-26T16:12:08;3.63;1.96;
74419;PMS5003;62855;50.718;-2.460;2024-02-26T16:15:05;3.63;1.96;
74419;PMS5003;62855;50.718;-2.460;2024-02-26T16:18:06;1.82;0.98;
74419;PMS5003;62855;50.718;-2.460;2024-02-26T16:21:05;1.82;0.98;
74419;PMS5003;62855;50.718;-2.460;2024-02-26T16:24:05;1.82;1.96;
74419;PMS5003;62855;50.718;-2.460;2024-02-26T16:27:06;1.82;1.96;
74419;PMS5003;62855;50.718;-2.460;2024-02-26T16:30:07;2.72;1.96;
74419;PMS5003;62855;50.718;-2.460;2024-02-26T16:33:06;2.72;0.98;
74419;PMS5003;62855;50.718;-2.460;2024-02-26T16:36:05;2.72;0.98;
74419;PMS5003;62855;50.718;-2.460;2024-02-26T16:39:06;2.72;0.98;
74419;PMS5003;62855;50.718;-2.460;2024-02-26T16:42:06;2.72;0.98;
74419;PMS5003;62855;50.718;-2.460;2024-02-26T16:45:06;1.82;0.98;
74419;PMS5003;62855;50.718;-2.460;2024-02-26T16:48:05;1.82;0.98;
74419;PMS5003;62855;50.718;-2.460;2024-02-26T16:51:06;1.82;0.98;
74419;PMS5003;62855;50.718;-2.460;2024-02-26T16:54:07;1.82;0.98;
74419;PMS5003;62855;50.718;-2.460;2024-02-26T16:57:05;2.72;1.96;
74419;PMS5003;62855;50.718;-2.460;2024-02-26T17:00:06;2.72;1.96;
74419;PMS5003;62855;50.718;-2.460;2024-02-26T17:03:05;1.82;1.96;
74419;PMS5003;62855;50.718;-2.460;2024-02-26T17:06:06;1.82;1.96;
74419;PMS5003;62855;50.718;-2.460;2024-02-26T17:09:05;1.82;1.96;
74419;PMS5003;62855;50.718;-2.460;2024-02-26T17:12:06;1.82;1.96;
74419;PMS5003;62855;50.718;-2.460;2024-02-26T17:15:05;1.82;1.96;
74419;PMS5003;62855;50.718;-2.460;2024-02-26T17:18:05;1.82;1.96;
74419;PMS5003;62855;50.718;-2.460;2024-02-26T17:21:05;0.91;0.98;
74419;PMS5003;62855;50.718;-2.460;2024-02-26T17:24:06;1.82;1.96;
74419;PMS5003;62855;50.718;-2.460;2024-02-26T17:27:05;0.91;0.98;
74419;PMS5003;62855;50.718;-2.460;2024-02-26T17:30:06;0.91;0.98;
74419;PMS5003;62855;50.718;-2.460;2024-02-26T17:33:06;0.91;0.98;
74419;PMS5003;62855;50.718;-2.460;2024-02-26T17:36:06;1.82;0.98;
74419;PMS5003;62855;50.718;-2.460;2024-02-26T17:39:05;0.91;0.98;
74419;PMS5003;62855;50.718;-2.460;2024-02-26T17:42:06;0.91;0.98;
74419;PMS5003;62855;50.718;-2.460;2024-02-26T17:45:06;1.82;0.98;
74419;PMS5003;62855;50.718;-2.460;2024-02-26T17:48:06;1.82;0.98;
74419;PMS5003;62855;50.718;-2.460;2024-02-26T17:51:06;2.72;0.98;
74419;PMS5003;62855;50.718;-2.460;2024-02-26T17:54:05;2.72;1.96;
74419;PMS5003;62855;50.718;-2.460;2024-02-26T17:57:05;2.72;1.96;
74419;PMS5003;62855;50.718;-2.460;2024-02-26T18:00:06;1.82;1.96;
74419;PMS5003;62855;50.718;-2.460;2024-02-26T18:03:05;2.72;0.98;
74419;PMS5003;62855;50.718;-2.460;2024-02-26T18:06:05;2.72;1.96;
74419;PMS5003;62855;50.718;-2.460;2024-02-26T18:09:05;2.72;1.96;
74419;PMS5003;62855;50.718;-2.460;2024-02-26T18:12:08;2.72;1.96;
74419;PMS5003;62855;50.718;-2.460;2024-02-26T18:15:05;2.72;1.96;
74419;PMS5003;62855;50.718;-2.460;2024-02-26T18:18:05;2.72;0.98;
74419;PMS5003;62855;50.718;-2.460;2024-02-26T18:21:06;1.82;0.98;
74419;PMS5003;62855;50.718;-2.460;2024-02-26T18:27:06;2.72;1.96;
74419;PMS5003;62855;50.718;-2.460;2024-02-26T18:30:06;2.72;1.96;